Time;durP1;ratioP1;P1;durP2;ratioP2;P2;SDS_P1;SDS_P2;PMS_P1;PMS_P2;Temp;Humidity;BMP_temperature;BMP_pressure;BME280_temperature;BME280_humidity;BME280_pressure;Samples;Min_cycle;Max_cycle;Signal;HPM_P1;HPM_P2
2021/12/20 00:03:05;;;;;;;17.07;10.00;;;6.60;93.00;;;6.89;65.04;99553.38;4894464;28;118289;-89
2021/12/20 00:05:35;;;;;;;11.10;9.10;;;6.30;92.60;;;6.85;64.67;99544.81;4894154;28;122936;-89
2021/12/20 00:08:04;;;;;;;17.60;10.13;;;6.30;92.50;;;6.84;64.84;99548.66;4885500;28;122928;-89
2021/12/20 00:10:36;;;;;;;16.60;11.00;;;6.30;92.50;;;6.83;64.99;99538.78;4899016;28;118413;-88
2021/12/20 00:13:22;;;;;;;14.77;9.87;;;6.30;92.50;;;6.83;65.21;99536.88;4896411;28;118389;-88
2021/12/20 00:15:51;;;;;;;15.47;10.00;;;6.30;92.50;;;6.82;65.08;99528.88;4893333;28;123507;-88
2021/12/20 00:18:39;;;;;;;15.70;11.40;;;6.30;92.50;;;6.86;65.10;99524.50;4882936;28;123333;-87
2021/12/20 00:24:49;;;;;;;15.97;9.83;;;6.40;92.60;;;6.85;65.05;99522.84;4900291;28;120291;-88
2021/12/20 00:27:36;;;;;;;15.57;9.67;;;6.30;92.50;;;6.84;64.75;99521.19;4893905;28;124494;-88
2021/12/20 00:30:23;;;;;;;16.27;11.03;;;6.30;92.50;;;6.81;65.25;99521.75;4895431;28;122907;-88
2021/12/20 00:32:51;;;;;;;15.27;9.53;;;6.30;92.40;;;6.79;65.22;99507.44;4895294;28;118482;-88
2021/12/20 00:35:19;;;;;;;18.00;11.07;;;6.30;92.40;;;6.77;64.57;99502.25;4886159;28;117516;-88
2021/12/20 00:40:55;;;;;;;14.90;9.80;;;6.30;92.40;;;6.79;65.14;99508.28;4886641;28;124074;-87
2021/12/20 00:43:22;;;;;;;15.30;9.30;;;6.30;92.40;;;6.80;65.33;99503.63;4884307;28;117883;-86
2021/12/20 00:45:49;;;;;;;25.70;10.23;;;6.30;92.50;;;6.84;65.03;99510.22;4893109;28;117494;-86
2021/12/20 00:48:19;;;;;;;14.97;9.90;;;6.50;92.50;;;6.88;64.51;99514.09;4893081;28;123401;-85
2021/12/20 00:51:04;;;;;;;15.10;10.37;;;6.30;92.50;;;6.90;64.57;99502.81;4899900;28;123519;-87
2021/12/20 00:53:31;;;;;;;13.63;9.40;;;6.40;92.50;;;6.89;64.85;99507.50;4893746;28;119023;-87
2021/12/20 00:55:59;;;;;;;14.40;9.87;;;6.40;92.50;;;6.89;64.33;99507.50;4899949;28;118890;-87
2021/12/20 00:58:27;;;;;;;14.77;10.40;;;6.40;92.50;;;6.92;64.76;99506.94;4883538;28;123208;-88
2021/12/20 01:01:32;;;;;;;14.00;9.43;;;6.40;92.50;;;6.96;64.23;99505.31;4880913;28;123047;-87
2021/12/20 01:07:40;;;;;;;14.93;9.33;;;6.40;92.40;;;6.92;64.77;99503.38;4897915;28;120582;-86
2021/12/20 01:10:28;;;;;;;14.47;9.47;;;6.40;92.40;;;6.95;64.60;99498.16;4902327;28;123055;-87
2021/12/20 01:13:16;;;;;;;16.30;10.27;;;6.40;92.40;;;6.97;64.57;99495.97;4894825;28;123398;-86
2021/12/20 01:16:29;;;;;;;14.60;9.77;;;6.40;92.40;;;6.98;64.81;99494.84;4881770;28;120345;-87
2021/12/20 01:19:56;;;;;;;17.53;11.10;;;6.40;92.30;;;7.00;64.82;99500.91;4889940;28;119400;-88
2021/12/20 01:26:43;;;;;;;14.63;9.90;;;6.40;92.30;;;6.97;64.42;99504.22;4898273;28;123618;-87
2021/12/20 01:32:54;;;;;;;15.70;10.60;;;6.50;92.30;;;6.99;64.73;99502.03;4901136;28;118646;-87
2021/12/20 01:35:41;;;;;;;15.87;9.87;;;6.50;92.30;;;7.05;64.55;99506.41;4895080;28;123547;-87
2021/12/20 01:41:52;;;;;;;14.43;9.77;;;6.50;92.30;;;7.06;64.47;99501.75;4905595;28;120370;-87
2021/12/20 01:44:21;;;;;;;17.77;10.67;;;6.50;92.20;;;7.08;64.09;99494.88;4900629;28;118201;-87
2021/12/20 01:46:49;;;;;;;16.63;9.80;;;6.60;92.30;;;7.12;64.59;99484.19;4889275;28;123612;-87
2021/12/20 01:50:01;;;;;;;16.00;10.67;;;6.60;92.30;;;7.15;64.00;99486.38;4906927;28;123228;-87
2021/12/20 01:52:46;;;;;;;14.40;9.50;;;6.60;92.20;;;7.15;64.11;99488.31;4883923;28;118837;-87
2021/12/20 01:55:32;;;;;;;16.17;10.47;;;6.60;92.20;;;7.16;64.45;99484.47;4905499;28;118671;-87
2021/12/20 01:57:59;;;;;;;16.93;10.70;;;6.60;92.20;;;7.14;64.24;99481.97;4891563;28;122767;-87
2021/12/20 02:03:58;;;;;;;19.27;11.00;;;6.60;92.10;;;7.17;63.84;99486.09;4906662;28;119264;-87
2021/12/20 02:09:01;;;;;;;19.00;11.67;;;6.70;92.20;;;7.15;64.39;99486.38;4892764;28;123944;-87
2021/12/20 02:11:30;;;;;;;20.73;11.13;;;6.60;92.10;;;7.17;63.83;99480.59;4889995;28;123195;-87
2021/12/20 02:17:57;;;;;;;17.63;10.93;;;6.60;92.10;;;7.14;64.55;99481.16;4908819;28;119530;-87
2021/12/20 02:21:20;;;;;;;21.10;12.27;;;6.60;92.10;;;7.14;63.93;99476.47;4899847;28;124176;-86
2021/12/20 02:27:47;;;;;;;21.60;12.03;;;6.60;92.20;;;7.12;64.26;99475.94;4908208;28;119691;-87
2021/12/20 02:39:15;;;;;;;17.37;10.77;;;6.60;92.10;;;7.19;64.01;99461.94;4894820;28;119297;-87
2021/12/20 02:41:43;;;;;;;18.93;10.50;;;6.60;92.10;;;7.15;64.01;99458.91;4905446;28;118169;-87
2021/12/20 02:44:17;;;;;;;18.70;10.80;;;6.60;92.10;;;7.14;63.95;99459.16;4886711;28;121653;-87
2021/12/20 02:47:06;;;;;;;18.43;11.50;;;6.60;92.10;;;7.14;64.16;99459.16;4905672;28;123708;-87
2021/12/20 02:50:32;;;;;;;17.13;11.10;;;6.60;92.10;;;7.13;64.19;99468.53;4886853;28;117714;-87
2021/12/20 02:53:00;;;;;;;16.83;10.87;;;6.60;92.00;;;7.08;64.19;99453.66;4896316;28;119005;-85
2021/12/20 02:55:26;;;;;;;18.23;10.87;;;6.60;92.00;;;7.10;63.72;99458.09;4895905;28;124708;-87
2021/12/20 02:57:53;;;;;;;17.73;10.80;;;6.60;92.00;;;7.11;64.10;99454.22;4912348;28;123323;-85
2021/12/20 03:04:03;;;;;;;22.23;12.17;;;6.60;92.00;;;7.11;63.87;99443.25;4905213;28;119001;-88
2021/12/20 03:10:12;;;;;;;19.10;11.07;;;6.60;92.00;;;7.09;63.92;99457.22;4896946;28;125050;-88
2021/12/20 03:13:17;;;;;;;18.30;11.13;;;6.60;92.00;;;7.12;64.34;99458.63;4891780;28;120042;-87
2021/12/20 03:19:27;;;;;;;20.23;12.83;;;6.60;92.00;;;7.08;63.72;99453.66;4906210;28;124294;-87
2021/12/20 03:21:55;;;;;;;19.50;12.17;;;6.60;92.00;;;7.06;64.07;99455.03;4904007;28;124316;-87
2021/12/20 03:24:24;;;;;;;20.80;11.27;;;6.50;92.00;;;7.07;63.76;99453.97;4901281;28;119109;-88
2021/12/20 03:26:50;;;;;;;20.43;11.93;;;6.70;92.20;;;7.08;64.38;99456.41;4907997;28;119856;-88
2021/12/20 03:29:35;;;;;;;18.43;11.37;;;5.10;91.50;;;7.09;64.23;99465.47;4906378;28;122833;-88
2021/12/20 03:32:25;;;;;;;21.60;12.80;;;6.60;92.10;;;7.06;64.28;99458.59;4906254;28;123565;-88
2021/12/20 03:35:50;;;;;;;23.90;11.50;;;6.50;92.10;;;7.01;64.17;99466.88;4899234;28;118661;-87
2021/12/20 03:38:35;;;;;;;18.17;10.70;;;6.50;92.20;;;6.97;64.29;99471.25;4899377;28;119717;-87
2021/12/20 03:41:01;;;;;;;20.13;10.30;;;6.50;92.20;;;6.95;64.36;99478.94;4902360;28;123132;-88
2021/12/20 03:43:49;;;;;;;19.73;11.73;;;6.50;92.20;;;6.96;64.48;99464.13;4912565;28;123596;-87
2021/12/20 03:49:58;;;;;;;19.77;10.73;;;6.50;92.20;;;6.91;64.68;99457.78;4901265;28;118814;-88
2021/12/20 03:53:21;;;;;;;19.50;11.30;;;6.40;92.20;;;6.92;64.63;99457.50;4909296;28;123452;-87
2021/12/20 03:55:48;;;;;;;21.07;10.80;;;6.50;92.20;;;6.88;64.98;99456.41;4906841;28;123315;-88
2021/12/20 03:58:35;;;;;;;20.20;11.07;;;6.40;92.20;;;6.91;64.97;99466.84;4888152;28;119096;-88
2021/12/20 04:04:44;;;;;;;18.60;11.20;;;6.40;92.20;;;6.84;64.73;99460.78;4882308;28;125088;-87
2021/12/20 04:10:52;;;;;;;17.67;10.20;;;6.40;92.20;;;6.82;64.92;99452.81;4893943;28;120425;-88
2021/12/20 04:13:57;;;;;;;18.77;11.50;;;6.40;92.30;;;6.87;65.11;99457.47;4892769;28;119827;-88
2021/12/20 04:16:26;;;;;;;22.93;11.53;;;6.40;92.30;;;6.86;65.10;99459.41;4867981;28;124293;-87
2021/12/20 04:18:53;;;;;;;17.67;10.63;;;6.40;92.30;;;6.88;64.45;99456.41;4850075;29;121529;-87
2021/12/20 04:21:22;;;;;;;15.80;9.70;;;6.60;92.40;;;6.89;64.61;99463.53;4883255;28;118499;-88
2021/12/20 04:24:07;;;;;;;18.30;11.37;;;6.60;92.40;;;6.90;64.29;99461.59;4866238;28;119540;-88
2021/12/20 04:26:34;;;;;;;19.07;10.97;;;6.40;92.30;;;6.89;64.57;99468.22;4875196;28;123675;-88
2021/12/20 04:29:38;;;;;;;20.60;11.43;;;6.40;92.30;;;6.91;64.50;99466.03;4876606;28;122442;-88
2021/12/20 04:32:07;;;;;;;20.97;11.97;;;6.40;92.30;;;6.89;64.58;99462.72;4866542;28;118693;-87
2021/12/20 04:38:34;;;;;;;21.43;11.77;;;6.40;92.40;;;6.85;65.35;99449.53;4873273;28;124520;-88
2021/12/20 04:41:02;;;;;;;21.43;11.40;;;6.40;92.40;;;6.83;64.61;99451.72;4875762;28;123108;-86
2021/12/20 04:43:49;;;;;;;22.20;11.53;;;6.40;92.40;;;6.89;64.64;99455.31;4871437;28;118620;-87
2021/12/20 04:46:16;;;;;;;20.40;11.80;;;6.40;92.40;;;6.89;65.01;99457.22;4875404;28;118396;-86
2021/12/20 04:52:24;;;;;;;15.17;10.17;;;6.40;92.50;;;6.88;65.24;99456.41;4884247;28;124065;-87
2021/12/20 04:55:12;;;;;;;19.63;11.40;;;6.40;92.50;;;6.92;64.75;99465.75;4876213;28;118295;-87
2021/12/20 04:57:39;;;;;;;18.20;11.53;;;6.40;92.50;;;6.93;64.83;99467.41;4875444;28;118738;-85
2021/12/20 05:00:12;;;;;;;22.93;11.70;;;6.40;92.50;;;6.96;65.30;99468.75;4882791;28;123484;-87
2021/12/20 05:02:39;;;;;;;18.30;10.60;;;6.40;92.50;;;6.97;65.29;99464.94;4870914;28;122821;-86
2021/12/20 05:05:10;;;;;;;22.97;11.17;;;6.70;92.70;;;7.00;64.90;99467.94;4860618;28;96764;-85
2021/12/20 05:11:20;;;;;;;17.70;10.70;;;6.50;92.60;;;7.00;65.39;99465.19;4874112;28;124055;-87
2021/12/20 05:14:44;;;;;;;25.27;12.40;;;6.50;92.60;;;7.02;65.16;99459.44;4860248;28;122175;-87
2021/12/20 05:20:52;;;;;;;20.03;11.63;;;6.40;92.60;;;6.97;65.59;99468.50;4878304;28;118930;-88
2021/12/20 05:23:38;;;;;;;20.87;10.30;;;6.40;92.60;;;7.02;64.99;99457.50;4884936;28;123647;-88
2021/12/20 05:26:23;;;;;;;14.53;9.77;;;6.50;92.70;;;7.06;65.25;99460.53;4881223;28;122883;-88
2021/12/20 05:29:09;;;;;;;18.60;10.30;;;6.50;92.70;;;7.06;64.74;99472.34;4876782;28;118808;-88
2021/12/20 05:32:02;;;;;;;19.20;11.80;;;6.50;92.70;;;7.07;65.28;99463.03;4872455;28;117833;-87
2021/12/20 05:34:29;;;;;;;21.40;11.97;;;6.50;92.80;;;7.06;65.18;99461.34;4866657;28;121695;-88
2021/12/20 05:36:57;;;;;;;20.33;12.10;;;6.50;92.70;;;7.08;65.39;99466.59;4879016;28;124231;-88
2021/12/20 05:39:24;;;;;;;18.37;11.07;;;6.70;92.80;;;7.10;65.19;99460.84;4867242;28;118599;-88
2021/12/20 05:41:52;;;;;;;16.37;10.77;;;6.50;92.70;;;7.11;65.45;99470.72;4867337;28;118867;-87
2021/12/20 05:44:19;;;;;;;18.77;10.83;;;6.60;92.80;;;7.13;65.10;99468.53;4869693;28;122798;-88
2021/12/20 05:46:46;;;;;;;21.57;13.03;;;6.60;92.80;;;7.15;65.26;99469.91;4865962;28;123062;-89
2021/12/20 05:49:15;;;;;;;19.33;11.60;;;7.00;92.90;;;7.16;65.08;99481.72;4859760;28;117266;-88
2021/12/20 05:55:24;;;;;;;20.93;11.50;;;6.60;92.80;;;7.15;65.16;99488.31;4893776;28;125171;-87
2021/12/20 05:57:50;;;;;;;21.10;13.30;;;6.60;92.70;;;7.15;65.13;99488.31;4888452;28;122286;-88
2021/12/20 06:00:20;;;;;;;22.60;12.00;;;6.60;92.80;;;7.13;65.00;99490.50;4905013;28;121102;-87
2021/12/20 06:02:50;;;;;;;20.03;11.70;;;6.60;92.80;;;7.13;65.17;99496.81;4904135;28;120087;-88
2021/12/20 06:05:18;;;;;;;21.30;12.10;;;6.60;92.80;;;7.10;65.59;99491.06;4906002;28;124781;-85
2021/12/20 06:08:22;;;;;;;20.67;12.67;;;6.60;92.80;;;7.10;64.89;99486.38;4878828;28;123459;-85
2021/12/20 06:10:51;;;;;;;21.07;12.50;;;6.60;92.90;;;7.07;65.28;99485.00;4886638;28;118121;-87
2021/12/20 06:13:18;;;;;;;20.70;12.60;;;6.50;92.80;;;7.07;65.21;99487.75;4881442;28;119097;-86
2021/12/20 06:16:05;;;;;;;19.23;10.40;;;6.60;92.90;;;7.11;65.57;99484.44;4890746;28;123264;-87
2021/12/20 06:19:09;;;;;;;18.23;10.40;;;6.60;92.90;;;7.11;65.33;99481.72;4891191;28;123085;-88
2021/12/20 06:22:13;;;;;;;23.00;11.90;;;6.60;92.90;;;7.07;65.50;99481.44;4873835;28;118463;-88
2021/12/20 06:24:41;;;;;;;20.17;12.03;;;6.60;92.80;;;7.03;65.33;99491.31;4870375;28;118386;-88
2021/12/20 06:27:07;;;;;;;26.47;12.43;;;6.60;92.90;;;7.05;66.16;99484.44;4893399;28;123170;-88
2021/12/20 06:29:36;;;;;;;25.03;11.80;;;6.50;93.00;;;7.11;65.87;99487.19;4895297;28;124020;-89
2021/12/20 06:32:41;;;;;;;19.43;11.13;;;6.50;93.10;;;7.19;65.93;99489.41;4894744;28;119179;-88
2021/12/20 06:35:26;;;;;;;16.90;10.80;;;6.50;93.30;;;7.22;65.96;99494.34;4886654;28;118313;-89
2021/12/20 06:38:01;;;;;;;17.27;10.03;;;6.60;93.40;;;7.26;66.01;99485.28;4871637;28;122968;-87
2021/12/20 06:40:31;;;;;;;16.93;10.03;;;6.60;93.50;;;7.36;66.43;99480.88;4883165;28;123943;-88
2021/12/20 06:42:58;;;;;;;20.60;10.40;;;6.70;93.70;;;7.50;66.78;99491.06;4886239;28;119615;-87
2021/12/20 06:46:05;;;;;;;19.57;10.77;;;6.70;93.90;;;7.68;66.33;99502.59;4898716;28;118721;-88
2021/12/20 06:49:09;;;;;;;17.67;10.50;;;6.80;94.00;;;7.67;65.80;99498.22;4885158;28;123334;-88
2021/12/20 06:52:13;;;;;;;23.57;12.37;;;6.90;93.80;;;7.60;65.87;99490.22;4899768;28;124216;-88
2021/12/20 06:54:42;;;;;;;18.23;11.40;;;6.90;93.60;;;7.52;66.12;99493.53;4881043;28;118018;-86
2021/12/20 06:57:10;;;;;;;22.90;12.20;;;6.90;93.50;;;7.49;65.93;99489.41;4894830;28;118565;-89
2021/12/20 07:00:32;;;;;;;22.13;12.20;;;6.90;93.50;;;7.47;65.78;99497.13;4870881;28;122100;-88
2021/12/20 07:03:01;;;;;;;22.80;13.00;;;6.90;93.40;;;7.40;65.76;99504.00;4856093;28;123502;-88
2021/12/20 07:05:28;;;;;;;21.70;12.67;;;6.80;93.30;;;7.36;65.46;99495.47;4866916;28;118806;-87
2021/12/20 07:07:55;;;;;;;21.93;12.93;;;6.80;93.20;;;7.36;66.44;99508.38;4866563;28;117995;-88
2021/12/20 07:10:24;;;;;;;23.17;12.93;;;6.80;93.40;;;7.38;66.30;99503.44;4886547;28;121913;-88
2021/12/20 07:13:10;;;;;;;24.80;13.10;;;6.80;93.50;;;7.39;66.40;99505.94;4874320;28;123276;-88
2021/12/20 07:15:55;;;;;;;24.67;12.97;;;6.80;93.70;;;7.41;66.23;99511.94;4863193;28;117694;-87
2021/12/20 07:18:44;;;;;;;20.67;12.27;;;6.80;93.70;;;7.44;66.53;99514.19;4851892;28;118344;-89
2021/12/20 07:21:12;;;;;;;20.03;12.00;;;6.90;93.60;;;7.43;66.24;99515.25;4870040;28;123183;-89
2021/12/20 07:24:34;;;;;;;18.80;10.83;;;6.90;93.50;;;7.39;65.91;99521.56;4870419;28;124055;-88
2021/12/20 07:27:01;;;;;;;20.97;11.23;;;6.80;93.40;;;7.33;65.99;99517.19;4871866;28;119199;-87
2021/12/20 07:29:27;;;;;;;18.33;11.03;;;6.80;93.20;;;7.31;65.68;99514.72;4873895;28;118663;-88
2021/12/20 07:31:54;;;;;;;18.20;11.13;;;6.80;93.20;;;7.29;65.95;99516.91;4870860;28;123346;-86
2021/12/20 07:34:58;;;;;;;26.07;12.97;;;6.80;93.10;;;7.27;65.64;99519.91;4863362;28;123849;-89
2021/12/20 07:37:28;;;;;;;21.33;12.50;;;6.80;93.00;;;7.19;65.48;99527.88;4868202;28;118598;-88
2021/12/20 07:40:13;;;;;;;24.10;12.83;;;6.70;92.90;;;7.17;65.53;99524.56;4872803;28;119071;-90
2021/12/20 07:42:59;;;;;;;18.73;11.60;;;6.70;93.00;;;7.18;65.62;99531.75;4858752;28;121817;-89
2021/12/20 07:45:28;;;;;;;18.40;10.73;;;6.60;92.90;;;7.15;65.52;99540.53;4871164;28;123206;-88
2021/12/20 07:47:57;;;;;;;21.73;11.67;;;6.60;92.90;;;7.15;65.53;99538.59;4856824;28;120149;-88
2021/12/20 07:50:24;;;;;;;18.43;10.63;;;6.60;92.90;;;7.16;65.11;99534.75;4870537;28;119520;-89
2021/12/20 07:52:51;;;;;;;17.50;10.90;;;6.60;92.90;;;7.16;65.53;99539.41;4872424;28;123233;-90
2021/12/20 07:55:18;;;;;;;15.43;10.17;;;6.60;92.80;;;7.16;65.65;99536.69;4851196;28;122970;-90
2021/12/20 07:57:44;;;;;;;19.70;10.93;;;6.60;92.90;;;7.18;65.42;99545.47;4879117;28;118944;-89
2021/12/20 08:00:14;;;;;;;18.73;10.63;;;6.60;92.80;;;7.20;65.55;99546.00;4877464;28;119444;-88
2021/12/20 08:02:43;;;;;;;17.63;10.67;;;6.70;92.90;;;7.22;65.38;99543.81;4870615;28;123469;-88
2021/12/20 08:05:14;;;;;;;18.40;11.07;;;6.70;92.90;;;7.22;65.39;99546.56;4874598;28;123975;-89
2021/12/20 08:08:00;;;;;;;20.10;10.97;;;6.70;92.90;;;7.23;64.81;99545.50;4872801;28;119191;-88
2021/12/20 08:10:45;;;;;;;18.80;11.03;;;6.70;92.80;;;7.20;64.78;99544.13;4888183;28;118444;-88
2021/12/20 08:13:50;;;;;;;22.23;10.87;;;6.70;92.80;;;7.21;65.07;99542.19;4889590;28;124386;-89
2021/12/20 08:16:36;;;;;;;17.67;9.83;;;6.70;92.80;;;7.20;64.98;99541.38;4894373;28;121831;-90
2021/12/20 08:19:04;;;;;;;17.87;10.33;;;6.70;92.80;;;7.20;65.49;99540.50;4891816;28;119939;-83
2021/12/20 08:21:50;;;;;;;21.43;12.33;;;6.70;92.80;;;7.26;64.72;99547.69;4875184;28;119467;-88
2021/12/20 08:25:13;;;;;;;22.10;11.27;;;6.70;92.80;;;7.29;64.88;99538.91;4873766;28;123783;-88
2021/12/20 08:27:39;;;;;;;21.13;12.10;;;6.70;92.80;;;7.29;64.88;99544.41;4892116;28;123566;-88
2021/12/20 08:33:48;;;;;;;18.60;10.40;;;6.80;92.80;;;7.32;65.18;99545.78;4894584;28;118758;-88
2021/12/20 08:36:33;;;;;;;21.13;11.60;;;6.80;93.00;;;7.34;64.58;99535.34;4887173;28;122074;-88
2021/12/20 08:39:01;;;;;;;20.37;11.70;;;6.80;92.70;;;7.30;65.18;99551.53;4882591;28;123648;-87
2021/12/20 08:41:27;;;;;;;25.37;13.50;;;6.70;92.70;;;7.30;65.03;99546.84;4863875;28;119128;-88
2021/12/20 08:47:35;;;;;;;19.97;11.10;;;6.70;92.70;;;7.30;65.11;99559.78;4893340;28;124704;-89
2021/12/20 08:50:07;;;;;;;19.73;11.73;;;6.80;92.80;;;7.34;64.77;99557.34;4878590;28;124292;-88
2021/12/20 08:52:35;;;;;;;21.57;11.60;;;6.80;92.80;;;7.35;64.83;99559.78;4893136;28;118912;-88
2021/12/20 08:55:22;;;;;;;18.80;11.80;;;6.80;92.80;;;7.40;65.09;99562.53;4889649;28;118307;-88
2021/12/20 08:57:50;;;;;;;25.70;13.60;;;6.80;92.80;;;7.37;64.83;99568.59;4873056;28;124131;-87
2021/12/20 09:00:28;;;;;;;23.93;12.63;;;6.80;92.60;;;7.34;64.80;99560.91;4853758;29;123789;-87
2021/12/20 09:02:57;;;;;;;27.93;12.30;;;6.80;92.70;;;7.33;64.48;99572.97;4857334;28;118710;-89
2021/12/20 09:05:29;;;;;;;25.60;11.67;;;6.80;92.70;;;7.35;64.98;99570.78;4858787;28;119052;-88
2021/12/20 09:08:00;;;;;;;21.83;12.13;;;6.80;92.70;;;7.35;65.02;99562.53;4812739;28;124379;-87
2021/12/20 09:10:31;;;;;;;20.43;11.40;;;6.80;92.70;;;7.37;64.68;99576.03;4866155;28;124235;-88
2021/12/20 09:12:58;;;;;;;20.53;11.50;;;6.80;92.70;;;7.42;65.17;99571.34;4870403;28;119462;-87
2021/12/20 09:15:25;;;;;;;18.03;11.10;;;6.90;92.80;;;7.48;64.76;99577.69;4854847;28;118834;-88
2021/12/20 09:17:53;;;;;;;20.77;11.60;;;6.90;92.80;;;7.52;64.49;99576.88;4864819;28;124239;-88
2021/12/20 09:20:24;;;;;;;20.67;11.10;;;6.90;92.80;;;7.53;64.55;99575.75;4859085;28;123325;-88
2021/12/20 09:22:53;;;;;;;18.30;10.37;;;6.90;92.70;;;7.55;64.88;99580.16;4859529;28;118667;-88
2021/12/20 09:25:25;;;;;;;21.03;10.47;;;7.00;92.80;;;7.60;64.32;99582.91;4873392;28;119093;-87
2021/12/20 09:27:54;;;;;;;20.30;11.23;;;7.00;92.70;;;7.59;64.47;99584.84;4871021;28;123546;-87
2021/12/20 09:30:26;;;;;;;18.70;11.63;;;7.00;92.70;;;7.62;64.58;99588.97;4868883;28;124059;-86
2021/12/20 09:32:54;;;;;;;18.70;11.30;;;7.00;92.60;;;7.62;64.50;99584.28;4875421;28;119539;-88
2021/12/20 09:35:22;;;;;;;19.63;10.93;;;7.10;92.60;;;7.65;64.43;99581.00;4857432;28;119866;-87
2021/12/20 09:37:50;;;;;;;21.33;11.93;;;7.10;92.60;;;7.68;64.22;99568.63;4872891;28;123777;-87
2021/12/20 09:40:38;;;;;;;17.70;10.20;;;7.10;92.60;;;7.72;64.11;99577.97;4861809;28;123068;-88
2021/12/20 09:43:11;;;;;;;19.67;12.10;;;7.10;92.50;;;7.72;64.01;99580.72;4867467;28;119293;-88
2021/12/20 09:45:42;;;;;;;19.60;12.00;;;7.10;92.40;;;7.69;64.10;99582.09;4855472;28;118784;-87
2021/12/20 09:48:12;;;;;;;19.10;11.43;;;7.10;92.40;;;7.67;63.84;99583.47;4845032;28;123647;-88
2021/12/20 09:50:38;;;;;;;17.27;10.77;;;7.10;92.30;;;7.68;63.71;99579.63;4855966;28;123673;-88
2021/12/20 09:53:07;;;;;;;23.03;12.27;;;7.10;92.30;;;7.69;63.96;99581.28;4869807;28;119329;-89
2021/12/20 09:55:54;;;;;;;30.70;14.73;;;7.10;92.20;;;7.66;63.57;99577.16;4854926;28;118304;-90
2021/12/20 09:58:22;;;;;;;22.63;12.33;;;7.10;92.10;;;7.60;63.72;99572.72;4877305;28;122533;-88
2021/12/20 10:00:51;;;;;;;22.40;12.50;;;7.00;92.10;;;7.61;63.74;99585.41;4867930;28;122967;-88
2021/12/20 10:03:24;;;;;;;21.37;12.43;;;7.10;92.20;;;7.67;63.58;99578.78;4885165;28;118585;-87
2021/12/20 10:05:55;;;;;;;23.50;13.13;;;7.10;92.20;;;7.70;63.29;99571.94;4885810;28;119005;-89
2021/12/20 10:08:36;;;;;;;23.00;12.63;;;7.10;92.20;;;7.71;63.56;99574.41;4888742;28;123468;-87
2021/12/20 10:11:40;;;;;;;25.67;14.03;;;7.10;92.20;;;7.73;63.51;99571.38;4888047;28;123962;-87
2021/12/20 10:14:28;;;;;;;22.90;13.23;;;7.10;92.10;;;7.73;63.50;99569.44;4859223;28;119465;-88
2021/12/20 10:17:05;;;;;;;25.60;14.03;;;7.10;92.10;;;7.74;63.41;99568.34;4882815;28;119167;-89
2021/12/20 10:19:36;;;;;;;24.47;13.83;;;7.20;92.10;;;7.78;63.66;99573.31;4857123;28;124555;-87
2021/12/20 10:22:30;;;;;;;23.60;13.63;;;7.20;92.10;;;7.83;63.80;99582.38;4874015;28;122958;-87
2021/12/20 10:24:59;;;;;;;32.43;15.63;;;7.20;92.10;;;7.83;62.78;99576.88;4891228;28;120662;-88
2021/12/20 10:27:29;;;;;;;26.83;13.90;;;7.20;92.00;;;7.81;63.35;99573.56;4876761;28;120380;-87
2021/12/20 10:29:56;;;;;;;25.70;14.80;;;7.20;92.00;;;7.84;63.23;99572.19;4876809;28;123196;-90
2021/12/20 10:32:43;;;;;;;24.37;12.93;;;7.30;92.00;;;7.91;63.17;99570.81;4874992;28;124075;-89
2021/12/20 10:35:43;;;;;;;22.90;12.60;;;7.30;92.00;;;7.96;63.15;99565.31;4871942;28;119706;-88
2021/12/20 10:38:49;;;;;;;24.30;12.17;;;7.40;92.00;;;8.05;62.66;99564.75;4891629;28;119111;-87
2021/12/20 10:41:37;;;;;;;22.53;12.20;;;7.40;92.00;;;8.13;62.76;99558.69;4870885;28;124009;-87
2021/12/20 10:44:21;;;;;;;23.83;12.93;;;7.50;92.00;;;8.21;62.93;99560.06;4874134;28;123866;-88
2021/12/20 10:46:51;;;;;;;26.57;12.87;;;7.60;92.10;;;8.24;62.62;99554.81;4874200;28;118337;-88
2021/12/20 10:49:19;;;;;;;17.13;11.47;;;7.60;91.90;;;8.26;62.57;99552.63;4873952;28;119430;-89
2021/12/20 10:51:49;;;;;;;23.60;12.80;;;7.70;91.90;;;8.29;62.46;99546.53;4884358;28;124516;-86
2021/12/20 10:54:21;;;;;;;22.93;13.40;;;7.70;91.80;;;8.32;62.11;99543.22;4876767;28;123731;-88
2021/12/20 10:57:02;;;;;;;24.20;11.37;;;8.40;91.90;;;8.35;61.83;99550.94;4891506;28;119387;-89
2021/12/20 10:59:35;;;;;;;16.17;9.83;;;7.80;91.80;;;8.34;61.60;99543.78;4903162;28;117372;-89
2021/12/20 11:04:47;;;;;;;15.23;9.03;;;7.80;91.20;;;8.32;60.59;99545.97;4881217;28;124343;-88
2021/12/20 11:10:28;;;;;;;19.63;10.63;;;7.80;90.70;;;8.34;60.41;99543.78;4895371;28;118926;-90
2021/12/20 11:13:16;;;;;;;13.63;8.63;;;7.80;90.50;;;8.34;60.18;99535.53;4866717;28;123435;-89
2021/12/20 11:15:43;;;;;;;15.20;8.97;;;7.80;90.40;;;8.41;60.12;99543.53;4894270;28;123899;-88
2021/12/20 11:18:17;;;;;;;17.30;7.90;;;7.80;90.40;;;8.54;59.71;99542.09;4887566;28;120174;-88
2021/12/20 11:20:44;;;;;;;14.97;8.40;;;7.90;90.40;;;8.60;59.48;99541.00;4900447;28;118191;-88
2021/12/20 11:23:12;;;;;;;12.53;7.37;;;8.00;90.20;;;8.67;59.32;99547.00;4900104;28;124450;-87
2021/12/20 11:25:39;;;;;;;12.93;7.90;;;8.00;90.10;;;8.80;58.70;99546.41;4892260;28;120844;-87
2021/12/20 11:28:26;;;;;;;13.37;7.73;;;8.10;90.00;;;9.03;58.43;99538.59;4884637;28;119080;-88
2021/12/20 11:30:55;;;;;;;15.00;9.10;;;8.20;90.00;;;9.19;58.04;99525.56;4868268;28;118238;-87
2021/12/20 11:34:05;;;;;;;14.73;9.30;;;8.40;89.70;;;9.42;57.83;99529.50;4881701;28;124303;-88
2021/12/20 11:36:32;;;;;;;13.60;8.83;;;8.60;89.30;;;9.56;57.45;99519.47;4876311;28;123319;-89
2021/12/20 11:38:59;;;;;;;16.50;9.37;;;8.70;89.10;;;9.72;57.31;99520.16;4870061;28;118963;-88
2021/12/20 11:42:22;;;;;;;14.17;8.50;;;8.90;88.90;;;9.95;56.38;99521.34;4891589;28;119145;-88
2021/12/20 11:44:56;;;;;;;14.70;9.07;;;9.10;88.20;;;10.18;55.51;99514.19;4877886;28;123798;-89
2021/12/20 11:47:42;;;;;;;13.00;8.07;;;9.30;87.10;;;10.36;55.64;99510.72;4868807;28;123977;-88
2021/12/20 11:50:14;;;;;;;14.90;8.93;;;9.50;87.20;;;10.56;55.09;99515.19;4888176;28;119260;-89
2021/12/20 11:53:20;;;;;;;13.53;7.40;;;9.70;86.90;;;10.80;54.94;99519.88;4881274;28;118703;-89
2021/12/20 11:55:52;;;;;;;14.53;7.37;;;9.90;86.40;;;11.01;54.27;99514.88;4884520;28;124183;-88
2021/12/20 11:58:27;;;;;;;14.80;8.87;;;10.20;85.00;;;11.14;53.84;99518.88;4879419;28;124354;-87
2021/12/20 12:00:58;;;;;;;18.43;11.10;;;10.40;84.10;;;11.17;53.20;99512.72;4864192;28;119327;-89
2021/12/20 12:03:39;;;;;;;22.50;10.10;;;10.50;83.00;;;11.15;53.46;99513.03;4867128;28;118161;-87
2021/12/20 12:06:10;;;;;;;15.70;8.37;;;10.60;83.30;;;11.12;53.54;99513.63;4855344;28;123228;-88
2021/12/20 12:09:16;;;;;;;13.90;7.37;;;10.60;83.00;;;11.14;53.73;99513.34;4855243;28;123682;-88
2021/12/20 12:11:43;;;;;;;12.10;8.00;;;10.70;82.90;;;11.12;53.50;99518.34;4853345;28;120061;-88
2021/12/20 12:14:32;;;;;;;11.60;7.53;;;10.70;82.60;;;11.08;53.01;99514.53;4868308;28;119877;-87
2021/12/20 12:17:19;;;;;;;13.30;7.40;;;10.70;82.30;;;11.03;53.39;99513.47;4856598;28;124060;-90
2021/12/20 12:19:52;;;;;;;14.80;8.63;;;10.70;82.00;;;10.98;52.75;99512.72;4867468;28;123019;-89
2021/12/20 12:22:42;;;;;;;13.83;8.43;;;10.60;81.60;;;10.91;52.97;99509.50;4865790;28;118651;-88
2021/12/20 12:25:36;;;;;;;11.73;7.60;;;10.60;81.40;;;10.83;53.04;99513.78;4865483;28;118217;-87
2021/12/20 12:28:03;;;;;;;13.83;8.30;;;10.50;81.40;;;10.77;53.01;99512.16;4852990;28;124046;-89
2021/12/20 12:30:56;;;;;;;12.97;7.87;;;10.50;81.40;;;10.74;52.86;99512.75;4851711;28;124037;-88
2021/12/20 12:33:27;;;;;;;16.57;8.67;;;10.50;81.20;;;10.67;52.61;99515.91;4866748;28;119758;-87
2021/12/20 12:35:57;;;;;;;10.87;7.80;;;10.40;81.00;;;10.62;52.98;99518.72;4852646;28;119124;-89
2021/12/20 12:38:36;;;;;;;12.50;7.10;;;10.30;80.90;;;10.57;52.99;99519.59;4846490;28;125228;-88